Time;durP1;ratioP1;P1;durP2;ratioP2;P2;SDS_P1;SDS_P2;PMS_P1;PMS_P2;Temp;Humidity;BMP_temperature;BMP_pressure;BME280_temperature;BME280_humidity;BME280_pressure;Samples;Min_cycle;Max_cycle;Signal;HPM_P1;HPM_P2
2022/11/22 00:00:55;;;;;;;39.27;21.57;;;2.10;99.90;;;;;;5028676;28;20575;-74
2022/11/22 00:03:23;;;;;;;37.17;19.93;;;2.20;99.90;;;;;;5030308;28;20326;-73
2022/11/22 00:05:50;;;;;;;37.40;21.30;;;2.20;99.90;;;;;;5028125;28;20284;-74
2022/11/22 00:08:17;;;;;;;39.83;22.63;;;2.20;99.90;;;;;;5029393;28;20579;-74
2022/11/22 00:10:44;;;;;;;40.30;22.07;;;2.20;99.90;;;;;;5029819;28;20658;-75
2022/11/22 00:13:11;;;;;;;39.33;21.80;;;2.20;99.90;;;;;;5028770;28;20202;-75
2022/11/22 00:15:38;;;;;;;36.63;22.10;;;2.20;99.90;;;;;;5022319;28;20237;-72
2022/11/22 00:18:04;;;;;;;37.87;21.60;;;2.20;99.90;;;;;;5028846;28;20619;-73
2022/11/22 00:20:33;;;;;;;41.40;20.50;;;2.20;99.90;;;;;;5027349;28;20202;-72
2022/11/22 00:23:00;;;;;;;37.73;20.80;;;2.20;99.90;;;;;;5033492;28;20206;-73
2022/11/22 00:25:27;;;;;;;36.93;20.30;;;2.20;99.90;;;;;;5031423;28;20221;-74
2022/11/22 00:27:54;;;;;;;41.80;23.23;;;2.10;99.90;;;;;;5032710;28;20234;-73
2022/11/22 00:30:21;;;;;;;39.07;21.17;;;2.10;99.90;;;;;;5032288;28;20264;-73
2022/11/22 00:32:48;;;;;;;37.93;21.47;;;2.10;99.90;;;;;;5032027;28;20202;-74
2022/11/22 00:35:15;;;;;;;40.00;21.60;;;2.10;99.90;;;;;;5030657;28;20816;-72
2022/11/22 00:37:43;;;;;;;37.90;21.00;;;2.10;99.90;;;;;;5032982;28;20208;-74
2022/11/22 00:40:10;;;;;;;34.30;20.23;;;2.10;99.90;;;;;;5031490;28;20202;-73
2022/11/22 00:42:37;;;;;;;41.13;21.50;;;2.10;99.90;;;;;;5032164;28;20214;-73
2022/11/22 00:45:05;;;;;;;39.73;21.33;;;2.10;99.90;;;;;;5028744;28;20644;-72
2022/11/22 00:47:31;;;;;;;40.73;21.27;;;2.10;99.90;;;;;;5030660;28;20694;-73
2022/11/22 00:49:58;;;;;;;40.30;21.67;;;2.10;99.90;;;;;;5027774;28;20217;-72
2022/11/22 00:52:25;;;;;;;37.93;20.97;;;2.10;99.90;;;;;;5030804;28;20214;-73
2022/11/22 00:54:53;;;;;;;41.67;21.63;;;2.10;99.90;;;;;;5031188;28;20211;-74
2022/11/22 00:57:19;;;;;;;40.07;21.47;;;2.10;99.90;;;;;;5032760;28;20199;-74
2022/11/22 00:59:46;;;;;;;37.07;21.70;;;2.10;99.90;;;;;;5032601;28;20785;-74
2022/11/22 01:02:13;;;;;;;35.60;21.00;;;2.10;99.90;;;;;;5030736;28;20210;-72
2022/11/22 01:04:40;;;;;;;43.00;23.43;;;2.10;99.90;;;;;;5031923;28;20206;-73
2022/11/22 01:07:07;;;;;;;40.17;21.33;;;2.00;99.90;;;;;;5031113;28;20206;-72
2022/11/22 01:09:34;;;;;;;42.13;22.57;;;2.00;99.90;;;;;;5031563;28;20693;-72
2022/11/22 01:12:02;;;;;;;41.23;20.90;;;2.00;99.90;;;;;;5031744;28;20242;-72
2022/11/22 01:14:28;;;;;;;41.57;22.03;;;2.00;99.90;;;;;;5028505;28;20714;-73
2022/11/22 01:16:57;;;;;;;39.60;21.07;;;2.00;99.90;;;;;;5031727;28;20206;-73
2022/11/22 01:19:23;;;;;;;42.53;22.70;;;1.90;99.90;;;;;;5029953;28;20234;-72
2022/11/22 01:21:50;;;;;;;40.20;20.80;;;2.00;99.90;;;;;;5029896;28;20585;-74
2022/11/22 01:24:17;;;;;;;38.53;21.60;;;1.90;99.90;;;;;;5024449;28;20203;-73
2022/11/22 01:26:43;;;;;;;43.10;22.27;;;1.90;99.90;;;;;;5032622;28;20714;-73
2022/11/22 01:29:12;;;;;;;42.13;22.63;;;1.90;99.90;;;;;;5031699;28;20237;-73
2022/11/22 01:31:38;;;;;;;40.37;22.10;;;1.90;99.90;;;;;;5032388;28;20218;-72
2022/11/22 01:34:06;;;;;;;39.20;21.87;;;2.00;99.90;;;;;;5031591;28;20210;-72
2022/11/22 01:36:33;;;;;;;36.53;21.67;;;2.00;99.90;;;;;;5031196;28;20230;-72
2022/11/22 01:38:59;;;;;;;37.60;21.73;;;2.00;99.90;;;;;;5032830;28;20233;-72
2022/11/22 01:41:27;;;;;;;39.33;21.47;;;2.00;99.90;;;;;;5031989;28;20207;-73
2022/11/22 01:43:54;;;;;;;41.10;21.73;;;2.00;99.90;;;;;;5031899;28;20214;-72
2022/11/22 01:46:34;;;;;;;42.80;21.90;;;2.00;99.90;;;;;;5029733;28;20202;-71
2022/11/22 01:49:04;;;;;;;46.67;23.23;;;2.00;99.90;;;;;;5032906;28;21038;-72
2022/11/22 01:51:37;;;;;;;40.97;22.70;;;2.00;99.90;;;;;;5025695;28;20203;-73
2022/11/22 01:54:07;;;;;;;46.87;23.07;;;2.00;99.90;;;;;;5030543;28;20210;-73
2022/11/22 01:56:35;;;;;;;44.23;22.67;;;2.00;99.90;;;;;;5033075;28;20203;-72
2022/11/22 01:59:06;;;;;;;47.60;24.50;;;2.00;99.90;;;;;;5025218;28;20203;-72
2022/11/22 02:01:35;;;;;;;42.83;22.77;;;2.00;99.90;;;;;;5033089;28;20202;-72
2022/11/22 02:04:04;;;;;;;42.40;22.10;;;2.00;99.90;;;;;;5033092;28;20206;-71
2022/11/22 02:06:37;;;;;;;42.23;23.07;;;2.10;99.90;;;;;;5033155;28;20478;-73
2022/11/22 02:09:10;;;;;;;43.70;22.50;;;2.00;99.90;;;;;;5021184;28;20218;-72
2022/11/22 02:11:41;;;;;;;46.17;23.70;;;2.00;99.90;;;;;;5034643;28;20264;-71
2022/11/22 02:14:09;;;;;;;49.53;23.30;;;2.00;99.90;;;;;;5032837;28;20541;-72
2022/11/22 02:16:38;;;;;;;47.97;23.67;;;2.00;99.90;;;;;;5035978;28;20201;-72
2022/11/22 02:19:10;;;;;;;47.67;24.17;;;2.00;99.90;;;;;;5033933;28;20213;-72
2022/11/22 02:21:37;;;;;;;47.50;23.83;;;2.00;99.90;;;;;;5034682;28;20203;-72
2022/11/22 02:24:11;;;;;;;49.97;23.80;;;2.00;99.90;;;;;;5034620;28;20209;-72
2022/11/22 02:26:39;;;;;;;53.23;25.83;;;2.00;99.90;;;;;;5034733;28;20197;-72
2022/11/22 02:29:07;;;;;;;54.80;25.00;;;2.00;99.90;;;;;;5034477;28;20222;-74
2022/11/22 02:31:37;;;;;;;47.40;24.00;;;2.00;99.90;;;;;;5032543;28;20210;-71
2022/11/22 02:34:04;;;;;;;51.10;23.80;;;2.00;99.90;;;;;;5034529;28;20218;-72
2022/11/22 02:36:35;;;;;;;51.10;25.47;;;2.00;99.90;;;;;;5033214;28;20211;-72
2022/11/22 02:39:02;;;;;;;47.10;23.87;;;2.00;99.90;;;;;;5034649;28;20206;-71
2022/11/22 02:41:29;;;;;;;52.60;24.20;;;2.00;99.90;;;;;;5033607;28;20210;-73
2022/11/22 02:43:57;;;;;;;46.37;23.23;;;2.10;99.90;;;;;;5032000;28;20207;-73
2022/11/22 02:46:24;;;;;;;50.13;25.63;;;2.10;99.90;;;;;;5020982;28;20203;-72
2022/11/22 02:48:51;;;;;;;51.27;24.70;;;2.10;99.90;;;;;;5032960;28;20717;-72
2022/11/22 02:51:19;;;;;;;52.30;25.43;;;2.10;99.90;;;;;;5033318;28;20217;-72
2022/11/22 02:53:47;;;;;;;57.83;26.03;;;2.10;99.90;;;;;;5028927;28;20565;-72
2022/11/22 02:56:14;;;;;;;49.70;24.43;;;2.10;99.90;;;;;;5031061;28;20203;-71
2022/11/22 02:58:41;;;;;;;52.33;25.13;;;2.10;99.90;;;;;;5033512;28;20210;-72
2022/11/22 03:01:11;;;;;;;50.57;24.87;;;2.10;99.90;;;;;;5032830;28;20222;-73
2022/11/22 03:03:38;;;;;;;50.53;24.73;;;2.10;99.90;;;;;;5031320;28;20199;-72
2022/11/22 03:06:05;;;;;;;43.97;22.70;;;2.10;99.90;;;;;;5033044;28;20248;-71
2022/11/22 03:08:32;;;;;;;49.27;24.30;;;2.10;99.90;;;;;;5033844;28;20234;-71
2022/11/22 03:10:59;;;;;;;52.13;24.37;;;2.10;99.90;;;;;;5033273;28;20209;-72
2022/11/22 03:13:25;;;;;;;48.27;23.63;;;2.10;99.90;;;;;;5033723;28;20213;-73
2022/11/22 03:15:53;;;;;;;54.77;24.13;;;2.10;99.90;;;;;;5031724;28;20240;-73
2022/11/22 03:18:21;;;;;;;51.50;24.30;;;2.10;99.90;;;;;;5034019;28;20206;-72
2022/11/22 03:20:48;;;;;;;50.17;24.13;;;2.10;99.90;;;;;;5032407;28;20207;-71
2022/11/22 03:23:14;;;;;;;50.70;25.33;;;2.10;99.90;;;;;;5032115;28;20218;-71
2022/11/22 03:25:41;;;;;;;51.53;24.93;;;2.10;99.90;;;;;;5032178;28;20211;-72
2022/11/22 03:28:08;;;;;;;49.87;25.33;;;2.10;99.90;;;;;;5032811;28;20229;-72
2022/11/22 03:30:38;;;;;;;51.70;25.03;;;2.10;99.90;;;;;;5033254;28;20217;-72
2022/11/22 03:33:05;;;;;;;46.73;24.10;;;2.20;99.90;;;;;;5030372;28;20214;-72
2022/11/22 03:35:33;;;;;;;49.43;22.97;;;2.20;99.90;;;;;;5033429;28;20213;-71
2022/11/22 03:38:00;;;;;;;48.63;24.60;;;2.20;99.90;;;;;;5034714;28;20206;-72
2022/11/22 03:40:26;;;;;;;55.27;24.63;;;2.20;99.90;;;;;;5033600;28;20214;-72
2022/11/22 03:42:55;;;;;;;55.60;24.70;;;2.20;99.90;;;;;;5032598;28;20214;-72
2022/11/22 03:45:22;;;;;;;49.93;25.27;;;2.20;99.90;;;;;;5033526;28;20214;-71
2022/11/22 03:47:49;;;;;;;51.03;25.07;;;2.10;99.90;;;;;;5033745;28;20229;-71
2022/11/22 03:50:16;;;;;;;55.00;25.17;;;2.10;99.90;;;;;;5032623;28;20837;-72
2022/11/22 03:52:44;;;;;;;48.20;24.63;;;2.10;99.90;;;;;;5033604;28;20213;-71
2022/11/22 03:55:10;;;;;;;49.57;24.53;;;2.10;99.90;;;;;;5033868;28;20214;-72
2022/11/22 03:57:37;;;;;;;51.77;25.67;;;2.10;99.90;;;;;;5032144;28;20207;-72
2022/11/22 04:00:05;;;;;;;51.50;24.10;;;2.10;99.90;;;;;;5032882;28;20709;-72
2022/11/22 04:02:32;;;;;;;52.03;24.90;;;2.10;99.90;;;;;;5024780;28;20289;-71
2022/11/22 04:04:59;;;;;;;51.57;24.47;;;2.10;99.90;;;;;;5031299;28;20210;-72
2022/11/22 04:07:26;;;;;;;55.07;23.53;;;2.00;99.90;;;;;;5033512;28;20297;-72
2022/11/22 04:09:54;;;;;;;48.60;22.60;;;2.10;99.90;;;;;;5033690;28;20250;-72
2022/11/22 04:12:21;;;;;;;40.53;21.30;;;2.10;99.90;;;;;;5033372;28;20206;-73
2022/11/22 04:17:40;;;;;;;43.40;21.30;;;2.20;99.90;;;;;;5020813;28;20252;-72
2022/11/22 04:22:58;;;;;;;46.43;22.10;;;2.20;99.90;;;;;;5030245;28;20205;-72
2022/11/22 04:25:26;;;;;;;40.50;21.20;;;2.10;99.90;;;;;;5033958;28;20526;-72
2022/11/22 04:27:53;;;;;;;45.60;22.13;;;2.10;99.90;;;;;;5033145;28;20210;-73
2022/11/22 04:30:20;;;;;;;44.33;20.80;;;2.20;99.90;;;;;;5033054;28;20226;-72
2022/11/22 04:32:45;;;;;;;48.07;22.40;;;2.10;99.90;;;;;;5030938;28;20203;-72
2022/11/22 04:35:13;;;;;;;43.40;23.27;;;2.10;99.90;;;;;;5031524;28;20225;-71
2022/11/22 04:37:40;;;;;;;50.70;24.13;;;2.10;99.90;;;;;;5032745;28;20217;-73
2022/11/22 04:40:08;;;;;;;46.27;23.87;;;2.10;99.90;;;;;;5033044;28;20206;-72
2022/11/22 04:45:22;;;;;;;50.93;23.37;;;2.10;99.90;;;;;;5032733;28;20213;-71
2022/11/22 04:48:01;;;;;;;47.20;22.17;;;2.10;99.90;;;;;;5032271;28;20269;-72
2022/11/22 04:53:13;;;;;;;58.03;23.67;;;2.00;99.90;;;;;;5032357;28;20775;-72
2022/11/22 04:55:40;;;;;;;56.30;24.23;;;2.00;99.90;;;;;;5033428;28;20210;-73
2022/11/22 04:58:09;;;;;;;56.53;22.80;;;2.00;99.90;;;;;;5033051;28;20202;-72
2022/11/22 05:00:36;;;;;;;52.10;23.63;;;1.90;99.90;;;;;;5033732;28;20729;-71
2022/11/22 05:03:03;;;;;;;59.93;24.97;;;1.90;99.90;;;;;;5031969;28;20198;-72
2022/11/22 05:05:30;;;;;;;54.40;23.40;;;1.80;99.90;;;;;;5028389;28;20679;-71
2022/11/22 05:07:58;;;;;;;54.53;23.03;;;1.90;99.90;;;;;;5033725;28;20191;-71
2022/11/22 05:10:25;;;;;;;60.07;24.00;;;1.80;99.90;;;;;;5035257;28;20229;-72
2022/11/22 05:12:52;;;;;;;56.97;23.93;;;1.80;99.90;;;;;;5037589;28;20592;-72
2022/11/22 05:15:20;;;;;;;54.40;24.57;;;1.80;99.90;;;;;;5034486;28;20614;-73
2022/11/22 05:17:47;;;;;;;53.37;24.77;;;1.80;99.90;;;;;;5035647;28;20674;-71
2022/11/22 05:20:14;;;;;;;58.53;25.80;;;1.80;99.90;;;;;;5034550;28;20202;-72
2022/11/22 05:25:25;;;;;;;48.70;22.73;;;1.80;99.90;;;;;;5035929;28;20436;-72
2022/11/22 05:27:54;;;;;;;57.10;25.47;;;1.90;99.90;;;;;;5036625;28;20218;-72
2022/11/22 05:30:22;;;;;;;56.47;23.20;;;1.90;99.90;;;;;;5034878;28;20231;-71
2022/11/22 05:32:49;;;;;;;56.07;26.17;;;1.90;99.90;;;;;;5030762;28;20214;-72
2022/11/22 05:35:16;;;;;;;55.23;25.37;;;1.90;99.90;;;;;;5036350;28;20207;-71
2022/11/22 05:37:45;;;;;;;54.10;23.83;;;1.90;99.90;;;;;;5035751;28;20213;-73
2022/11/22 05:40:12;;;;;;;67.13;25.60;;;1.90;99.90;;;;;;5027274;28;20233;-72
2022/11/22 05:42:39;;;;;;;61.73;26.37;;;1.90;99.90;;;;;;5035080;28;20213;-71
2022/11/22 05:45:07;;;;;;;59.90;25.17;;;1.90;99.90;;;;;;5037504;28;20219;-73
2022/11/22 05:47:36;;;;;;;75.90;26.03;;;1.90;99.90;;;;;;5035993;28;20218;-73
2022/11/22 05:50:03;;;;;;;64.53;26.47;;;1.90;99.90;;;;;;5034999;28;20229;-72
2022/11/22 05:52:30;;;;;;;63.93;25.87;;;1.90;99.90;;;;;;5032572;28;20212;-72
2022/11/22 05:54:57;;;;;;;61.77;24.77;;;2.00;99.90;;;;;;5035930;28;20207;-73
2022/11/22 05:57:24;;;;;;;69.93;27.50;;;2.00;99.90;;;;;;5034544;28;20233;-72
2022/11/22 05:59:51;;;;;;;63.67;24.63;;;1.90;99.90;;;;;;5036110;28;20219;-72
2022/11/22 06:02:17;;;;;;;67.43;26.37;;;2.00;99.90;;;;;;5035211;28;20207;-72
2022/11/22 06:04:46;;;;;;;66.57;25.50;;;1.90;99.90;;;;;;5035895;28;20340;-72
2022/11/22 06:07:13;;;;;;;67.03;25.70;;;2.00;99.90;;;;;;5036417;28;20202;-73
2022/11/22 06:09:40;;;;;;;66.40;24.73;;;2.00;99.90;;;;;;5035868;28;20222;-72
2022/11/22 06:12:07;;;;;;;54.93;24.90;;;2.10;99.90;;;;;;5033708;28;20221;-73
2022/11/22 06:14:34;;;;;;;72.63;28.70;;;2.10;99.90;;;;;;5034708;28;20608;-72
2022/11/22 06:17:01;;;;;;;68.27;26.90;;;2.10;99.90;;;;;;5034165;28;20203;-72
2022/11/22 06:19:28;;;;;;;61.37;25.77;;;2.10;99.90;;;;;;5037808;28;20202;-72
2022/11/22 06:21:56;;;;;;;66.20;25.73;;;2.10;99.90;;;;;;5036369;28;20278;-72
2022/11/22 06:24:23;;;;;;;64.07;27.57;;;2.10;99.90;;;;;;5036795;28;20222;-72
2022/11/22 06:26:50;;;;;;;69.37;26.97;;;2.00;99.90;;;;;;5037765;28;20652;-71
2022/11/22 06:29:17;;;;;;;64.00;26.27;;;2.10;99.90;;;;;;5031062;28;20234;-72
2022/11/22 06:31:44;;;;;;;63.57;26.27;;;2.10;99.90;;;;;;5032269;28;20581;-72
2022/11/22 06:34:12;;;;;;;61.97;24.87;;;2.10;99.90;;;;;;5037117;28;20207;-71
2022/11/22 06:36:39;;;;;;;66.70;26.70;;;2.10;99.90;;;;;;5036373;28;20207;-73
2022/11/22 06:39:07;;;;;;;60.20;25.73;;;2.10;99.90;;;;;;5036551;28;20221;-73
2022/11/22 06:41:36;;;;;;;69.27;26.17;;;2.10;99.90;;;;;;5033749;28;20207;-73
2022/11/22 06:44:05;;;;;;;55.60;24.53;;;2.10;99.90;;;;;;5034775;28;20226;-70
2022/11/22 06:46:32;;;;;;;59.27;24.60;;;2.10;99.90;;;;;;5025798;28;20678;-71
2022/11/22 06:48:59;;;;;;;63.37;26.63;;;2.10;99.90;;;;;;5028032;28;20253;-71
2022/11/22 06:51:27;;;;;;;64.60;28.07;;;2.10;99.90;;;;;;5025742;28;20203;-71
2022/11/22 06:53:54;;;;;;;64.37;25.70;;;2.10;99.90;;;;;;5022515;28;20206;-70
2022/11/22 06:56:24;;;;;;;69.70;26.97;;;2.10;99.90;;;;;;5029848;28;20221;-69
2022/11/22 06:58:52;;;;;;;83.00;34.85;;;2.10;99.90;;;;;;5021777;28;20492;-75
2022/11/22 07:01:21;;;;;;;60.73;27.93;;;2.10;99.90;;;;;;5032607;28;20558;-75
2022/11/22 07:03:48;;;;;;;78.43;28.80;;;2.20;99.90;;;;;;5028124;28;20213;-73
2022/11/22 07:06:17;;;;;;;69.07;28.77;;;2.20;99.90;;;;;;5030621;28;20233;-74
2022/11/22 07:08:45;;;;;;;72.50;29.33;;;2.20;99.90;;;;;;5029891;28;20218;-73
2022/11/22 07:11:13;;;;;;;71.17;26.40;;;2.20;99.90;;;;;;5033385;28;20214;-74
2022/11/22 07:13:42;;;;;;;68.53;28.63;;;2.20;99.90;;;;;;5033028;28;20209;-73
2022/11/22 07:16:11;;;;;;;71.07;26.73;;;2.20;99.90;;;;;;5032315;28;20211;-71
2022/11/22 07:18:39;;;;;;;77.37;29.70;;;2.30;99.90;;;;;;5037015;28;20270;-72
2022/11/22 07:21:07;;;;;;;69.20;29.37;;;2.30;99.90;;;;;;5036435;28;20209;-75
2022/11/22 07:23:34;;;;;;;74.40;28.57;;;2.30;99.90;;;;;;5040368;28;20651;-71
2022/11/22 07:26:01;;;;;;;75.47;28.63;;;2.30;99.90;;;;;;5035458;28;20206;-73
2022/11/22 07:28:28;;;;;;;77.60;28.57;;;2.30;99.90;;;;;;5025640;28;20203;-74
2022/11/22 07:31:01;;;;;;;76.00;29.07;;;2.30;99.90;;;;;;5025941;28;20227;-73
2022/11/22 07:33:28;;;;;;;76.37;28.00;;;2.30;99.90;;;;;;5025801;28;20678;-72
2022/11/22 07:35:55;;;;;;;77.63;29.60;;;2.30;99.90;;;;;;5026340;28;20238;-69
2022/11/22 07:38:22;;;;;;;75.40;28.90;;;2.30;99.90;;;;;;5018171;28;20219;-70
2022/11/22 07:40:49;;;;;;;70.87;25.60;;;2.30;99.90;;;;;;5028184;28;20211;-69
2022/11/22 07:43:16;;;;;;;72.07;27.90;;;2.30;99.90;;;;;;5026443;28;20214;-69
2022/11/22 07:45:43;;;;;;;70.50;26.93;;;2.30;99.90;;;;;;5019967;28;20671;-70
2022/11/22 07:48:13;;;;;;;72.43;26.13;;;2.30;99.90;;;;;;5013414;28;20701;-68
2022/11/22 07:50:40;;;;;;;70.47;26.97;;;2.30;99.90;;;;;;5022447;28;20215;-69
2022/11/22 07:53:08;;;;;;;78.13;26.43;;;2.30;99.90;;;;;;5016882;28;20218;-68
2022/11/22 07:55:35;;;;;;;73.50;28.40;;;2.30;99.90;;;;;;5023819;28;20215;-72
2022/11/22 07:58:02;;;;;;;69.47;25.67;;;2.30;99.90;;;;;;5032562;28;20213;-72
2022/11/22 08:00:29;;;;;;;70.07;25.17;;;2.30;99.90;;;;;;5038182;28;20820;-73
2022/11/22 08:02:57;;;;;;;59.87;26.10;;;2.30;99.90;;;;;;5033976;28;20215;-70
2022/11/22 08:05:26;;;;;;;62.97;24.80;;;2.30;99.90;;;;;;5035302;28;20233;-70
2022/11/22 08:07:54;;;;;;;61.90;25.23;;;2.30;99.90;;;;;;5034174;28;20203;-71
2022/11/22 08:10:21;;;;;;;63.63;24.57;;;2.30;99.90;;;;;;5035573;28;20231;-71
2022/11/22 08:12:48;;;;;;;73.87;26.27;;;2.30;99.90;;;;;;5026463;28;20274;-74
2022/11/22 08:15:17;;;;;;;68.37;25.93;;;2.30;99.90;;;;;;5028946;28;20242;-70
2022/11/22 08:17:44;;;;;;;63.27;25.53;;;2.30;99.90;;;;;;5035793;28;20213;-73
2022/11/22 08:20:12;;;;;;;61.23;25.63;;;2.30;99.90;;;;;;5032595;28;20219;-73
2022/11/22 08:22:40;;;;;;;71.43;26.53;;;2.20;99.90;;;;;;5035824;28;20289;-71
2022/11/22 08:25:11;;;;;;;75.90;28.30;;;2.30;99.90;;;;;;5034126;28;20215;-71
2022/11/22 08:27:39;;;;;;;78.63;29.07;;;2.40;99.90;;;;;;5032211;28;20206;-73
2022/11/22 08:30:06;;;;;;;66.53;26.93;;;2.40;99.90;;;;;;5034991;28;20270;-70
2022/11/22 08:32:34;;;;;;;77.53;29.10;;;2.40;99.90;;;;;;5035899;28;20561;-71
2022/11/22 08:35:00;;;;;;;72.57;28.93;;;2.50;99.90;;;;;;5035029;28;20222;-70
2022/11/22 08:37:27;;;;;;;73.87;29.50;;;2.50;99.90;;;;;;5033040;28;20211;-71
2022/11/22 08:39:55;;;;;;;68.80;27.60;;;2.50;99.90;;;;;;5030636;28;20203;-71
2022/11/22 08:42:22;;;;;;;82.63;30.17;;;2.50;99.90;;;;;;5039740;28;20215;-76
2022/11/22 08:44:49;;;;;;;78.50;29.73;;;2.60;99.90;;;;;;5037823;28;20207;-70
2022/11/22 08:47:16;;;;;;;78.93;28.40;;;2.60;99.90;;;;;;5041720;28;20779;-70
2022/11/22 08:49:43;;;;;;;76.17;30.73;;;2.60;99.90;;;;;;5041979;28;20249;-72
2022/11/22 08:52:09;;;;;;;73.90;28.10;;;2.60;99.90;;;;;;5035448;28;20205;-69
2022/11/22 08:54:36;;;;;;;78.53;29.67;;;2.60;99.90;;;;;;5036292;28;20210;-70
2022/11/22 08:57:04;;;;;;;71.13;27.93;;;2.60;99.90;;;;;;5030724;28;20206;-69
2022/11/22 08:59:31;;;;;;;74.83;29.10;;;2.70;99.90;;;;;;5032858;28;20235;-69
2022/11/22 09:01:58;;;;;;;76.87;27.50;;;2.70;99.90;;;;;;5026629;28;20218;-68
2022/11/22 09:04:25;;;;;;;78.77;29.70;;;2.60;99.90;;;;;;5032001;28;20198;-68
2022/11/22 09:06:52;;;;;;;76.47;30.77;;;2.60;99.90;;;;;;5029026;28;20253;-68
2022/11/22 09:09:19;;;;;;;76.07;29.73;;;2.60;99.90;;;;;;5036808;28;20225;-70
2022/11/22 09:11:45;;;;;;;81.77;28.87;;;2.60;99.90;;;;;;5036665;28;20749;-69
2022/11/22 09:14:13;;;;;;;69.77;28.73;;;2.60;99.90;;;;;;5033523;28;20234;-69
2022/11/22 09:16:40;;;;;;;68.83;28.17;;;2.60;99.90;;;;;;5034179;28;20203;-69
2022/11/22 09:19:07;;;;;;;71.67;27.67;;;2.60;99.90;;;;;;5031392;28;20209;-69
2022/11/22 09:21:34;;;;;;;81.30;31.00;;;2.60;99.90;;;;;;5034027;28;20293;-67
2022/11/22 09:24:01;;;;;;;81.13;28.23;;;2.60;99.90;;;;;;5033799;28;20222;-69
2022/11/22 09:26:29;;;;;;;68.23;25.87;;;2.60;99.90;;;;;;5030947;28;20242;-68
2022/11/22 09:28:56;;;;;;;74.30;28.00;;;2.60;99.90;;;;;;5034624;28;20221;-70
2022/11/22 09:31:25;;;;;;;75.47;28.43;;;2.60;99.90;;;;;;5032731;28;20233;-70
2022/11/22 09:33:52;;;;;;;75.00;29.43;;;2.60;99.90;;;;;;5032192;28;20219;-70
2022/11/22 09:36:20;;;;;;;75.33;28.77;;;2.60;99.90;;;;;;5032222;28;20206;-71
2022/11/22 09:38:47;;;;;;;73.90;29.97;;;2.70;99.90;;;;;;5028703;28;20218;-69
2022/11/22 09:41:30;;;;;;;86.73;30.33;;;2.70;99.90;;;;;;5036529;28;20199;-71
2022/11/22 09:44:08;;;;;;;80.10;31.07;;;2.80;99.90;;;;;;5038368;28;20202;-72
2022/11/22 09:46:45;;;;;;;74.57;28.00;;;2.80;99.90;;;;;;5038083;28;20203;-69
2022/11/22 09:49:26;;;;;;;75.87;27.53;;;2.80;99.90;;;;;;5038740;28;20223;-69
2022/11/22 09:51:59;;;;;;;71.90;26.93;;;2.90;99.90;;;;;;5038266;28;20280;-69
2022/11/22 09:54:30;;;;;;;74.53;28.07;;;2.90;99.90;;;;;;5030347;28;20563;-67
2022/11/22 09:57:01;;;;;;;69.93;28.13;;;2.80;99.90;;;;;;5033473;28;20210;-73
2022/11/22 09:59:32;;;;;;;68.63;26.93;;;2.80;99.90;;;;;;5036299;28;20265;-70
2022/11/22 10:02:06;;;;;;;74.00;26.17;;;2.80;99.90;;;;;;5034631;28;20209;-72
2022/11/22 10:04:38;;;;;;;69.00;28.17;;;2.90;99.90;;;;;;5033858;28;20198;-70
2022/11/22 10:07:12;;;;;;;69.47;27.77;;;2.90;99.90;;;;;;5035411;28;20199;-72
2022/11/22 10:09:47;;;;;;;72.63;27.67;;;2.80;99.90;;;;;;5040202;28;20212;-70
2022/11/22 10:12:19;;;;;;;80.43;29.07;;;2.90;99.90;;;;;;5041130;28;20205;-72
2022/11/22 10:14:51;;;;;;;65.10;27.37;;;2.90;99.90;;;;;;5033380;28;20272;-71
2022/11/22 10:17:28;;;;;;;70.40;28.50;;;2.90;99.90;;;;;;5038711;28;20209;-71
2022/11/22 10:20:04;;;;;;;73.33;28.87;;;3.00;99.90;;;;;;5040604;28;20691;-72
2022/11/22 10:22:33;;;;;;;66.97;27.73;;;3.00;99.90;;;;;;5045509;28;20823;-72
2022/11/22 10:25:02;;;;;;;64.33;26.67;;;3.00;99.90;;;;;;5034392;28;20313;-71
2022/11/22 10:27:32;;;;;;;59.87;24.17;;;3.00;99.90;;;;;;5041439;28;20221;-71
2022/11/22 10:30:03;;;;;;;65.37;26.47;;;3.10;99.90;;;;;;5044528;28;20245;-71
2022/11/22 10:32:37;;;;;;;67.23;26.90;;;3.10;99.90;;;;;;5040402;28;20210;-71
2022/11/22 10:35:28;;;;;;;66.47;26.20;;;3.10;99.90;;;;;;5044019;28;20233;-71
2022/11/22 10:38:03;;;;;;;73.27;26.27;;;3.10;99.90;;;;;;5042032;28;20213;-69
2022/11/22 10:40:38;;;;;;;57.00;25.23;;;3.10;99.90;;;;;;5038579;28;20210;-70
2022/11/22 10:43:19;;;;;;;57.90;24.93;;;3.20;99.90;;;;;;5035318;28;20220;-69
2022/11/22 10:45:49;;;;;;;57.17;23.57;;;3.20;99.90;;;;;;5037414;28;20198;-71
2022/11/22 10:48:24;;;;;;;54.83;23.87;;;3.30;99.90;;;;;;5032371;28;20202;-69
2022/11/22 10:51:00;;;;;;;43.50;19.73;;;3.40;99.90;;;;;;5035125;28;20217;-68
2022/11/22 10:53:40;;;;;;;52.23;22.97;;;3.40;99.90;;;;;;5033119;28;20198;-71
2022/11/22 10:56:16;;;;;;;55.93;23.73;;;3.50;99.90;;;;;;5038207;28;20208;-69
2022/11/22 10:58:55;;;;;;;47.67;22.23;;;3.60;99.90;;;;;;5040435;28;20231;-70
2022/11/22 11:01:31;;;;;;;45.47;19.67;;;3.70;99.90;;;;;;5035248;28;20194;-70
2022/11/22 11:04:01;;;;;;;46.53;20.50;;;3.80;99.90;;;;;;5028820;28;20217;-70
2022/11/22 11:06:33;;;;;;;39.93;19.30;;;3.80;99.90;;;;;;5021254;28;20302;-71
2022/11/22 11:09:05;;;;;;;42.90;19.53;;;3.80;99.90;;;;;;5016224;28;20218;-72
2022/11/22 11:11:34;;;;;;;43.83;20.17;;;3.90;99.90;;;;;;5016584;28;20207;-71
2022/11/22 11:14:05;;;;;;;36.60;17.20;;;3.90;99.90;;;;;;5021437;28;20245;-72
2022/11/22 11:16:36;;;;;;;37.93;18.13;;;4.00;99.90;;;;;;5017895;28;20248;-71
2022/11/22 11:19:15;;;;;;;39.87;17.90;;;4.00;99.90;;;;;;4989632;28;101367;-70
2022/11/22 11:21:42;;;;;;;43.17;19.97;;;4.00;99.90;;;;;;5000840;28;20242;-71
2022/11/22 11:24:13;;;;;;;32.67;16.97;;;4.00;99.90;;;;;;4994484;28;20204;-71
2022/11/22 11:26:42;;;;;;;36.90;17.23;;;4.10;99.90;;;;;;4995645;28;20661;-71
2022/11/22 11:29:31;;;;;;;29.07;13.73;;;4.10;99.90;;;;;;4993287;28;20207;-72
2022/11/22 11:32:11;;;;;;;26.50;13.90;;;4.20;99.90;;;;;;4992126;28;20247;-70
2022/11/22 11:34:42;;;;;;;34.97;16.53;;;4.20;99.90;;;;;;4981907;28;20303;-70
2022/11/22 11:37:21;;;;;;;36.27;17.83;;;4.20;99.90;;;;;;4988764;28;20586;-73
2022/11/22 11:39:48;;;;;;;33.67;16.43;;;4.10;99.90;;;;;;4989269;28;20211;-73
2022/11/22 11:42:26;;;;;;;34.37;17.93;;;4.10;99.90;;;;;;4991380;28;20208;-72
2022/11/22 11:44:54;;;;;;;36.57;17.90;;;4.00;99.90;;;;;;4994186;28;20669;-72
2022/11/22 11:47:32;;;;;;;37.43;19.20;;;4.00;99.90;;;;;;4988471;28;20318;-73
2022/11/22 11:50:00;;;;;;;37.67;18.30;;;4.00;99.90;;;;;;4982942;28;20735;-73
2022/11/22 11:52:29;;;;;;;41.90;19.73;;;4.00;99.90;;;;;;4986398;28;20369;-72
2022/11/22 11:54:57;;;;;;;40.53;19.90;;;4.00;99.90;;;;;;4989500;28;20220;-73
2022/11/22 11:57:29;;;;;;;38.13;18.90;;;3.90;99.90;;;;;;4987719;28;20211;-75
2022/11/22 11:59:59;;;;;;;39.00;20.23;;;3.90;99.90;;;;;;4988095;28;20243;-73
2022/11/22 12:02:39;;;;;;;38.40;17.77;;;3.90;99.90;;;;;;4986600;28;20204;-75
2022/11/22 12:05:25;;;;;;;33.13;16.13;;;3.80;99.90;;;;;;4990452;28;20611;-73
2022/11/22 12:07:52;;;;;;;35.07;16.57;;;3.80;99.90;;;;;;4992597;28;20208;-72
2022/11/22 12:10:33;;;;;;;34.07;16.43;;;3.70;99.90;;;;;;5000925;28;20212;-72
2022/11/22 12:13:05;;;;;;;39.83;17.80;;;3.70;99.90;;;;;;4991105;28;20212;-72
2022/11/22 12:15:51;;;;;;;39.73;18.17;;;3.60;99.90;;;;;;4999422;28;20255;-70
2022/11/22 12:18:36;;;;;;;45.40;19.70;;;3.60;99.90;;;;;;5002153;28;20653;-73
2022/11/22 12:21:15;;;;;;;39.37;18.60;;;3.50;99.90;;;;;;4996401;28;20231;-73
2022/11/22 12:23:47;;;;;;;36.77;18.40;;;3.50;99.90;;;;;;5007644;28;20211;-73
2022/11/22 12:26:15;;;;;;;39.43;18.13;;;3.50;99.90;;;;;;4991408;28;20679;-73
2022/11/22 12:28:43;;;;;;;39.07;18.13;;;3.40;99.90;;;;;;4996541;28;20562;-74
2022/11/22 12:31:18;;;;;;;42.13;18.27;;;3.90;99.90;;;;;;4999796;28;20215;-74
2022/11/22 12:33:51;;;;;;;44.70;20.30;;;3.30;99.90;;;;;;5012763;28;20223;-70
2022/11/22 12:36:25;;;;;;;44.23;20.83;;;3.30;99.90;;;;;;5010132;28;20211;-73
2022/11/22 12:38:54;;;;;;;47.17;22.50;;;3.30;99.90;;;;;;5015199;28;20258;-73
2022/11/22 12:41:26;;;;;;;47.40;23.30;;;3.30;99.90;;;;;;5005912;28;20199;-73
2022/11/22 12:43:56;;;;;;;47.73;21.37;;;3.30;99.90;;;;;;5011621;28;20273;-74
2022/11/22 12:46:27;;;;;;;44.83;21.43;;;3.30;99.90;;;;;;5013172;28;20207;-76
2022/11/22 12:48:57;;;;;;;40.73;19.50;;;3.30;99.90;;;;;;5002256;28;20207;-72
2022/11/22 12:51:34;;;;;;;42.83;18.67;;;3.30;99.90;;;;;;5004845;28;20536;-75
2022/11/22 12:54:04;;;;;;;43.60;20.87;;;3.30;99.90;;;;;;5001113;28;20575;-71
2022/11/22 12:56:39;;;;;;;40.53;19.50;;;3.30;99.90;;;;;;5001467;28;20204;-70
2022/11/22 12:59:15;;;;;;;40.63;19.70;;;3.40;99.90;;;;;;5009367;28;20198;-72